Aviation Digital Data Service (ADDS)

Output produced by METARs form (1529 UTC 19 January 2018)
found at http://aviationweather.gov/adds/metars/
 
KCXO 191453Z 11004KT 10SM OVC043 04/M02 A3031 RMK AO2 SLP264 T00441022 55000